< < Back
Terminal Aerodrome Forecast


Current Version              Previous Versions:   1  2  3  4  5  6  7  8  9  

Terminal Aerodrome Forecast

021
FTUS44 KHUN 171720
TAFHSV
TAF
KHSV 171720Z 1718/1818 14012KT P6SM SCT035 BKN250
     FM180000 13006KT P6SM BKN035 BKN150
     FM181200 10006KT P6SM OVC030=

Latest METAR

732
SAUS80 KWBC 181800
MTRHSV
METAR KHSV 181753Z 08007KT 10SM FEW100 OVC250 17/07 A3025 RMK AO2 SLP242
60000 T01670067 10172 20144 56011


USA.gov is the U.S. government's official web portal to all federal, state and local government web resources and services.